Time;durP1;ratioP1;P1;durP2;ratioP2;P2;SDS_P1;SDS_P2;PMS_P1;PMS_P2;Temp;Humidity;BMP_temperature;BMP_pressure;BME280_temperature;BME280_humidity;BME280_pressure;Samples;Min_cycle;Max_cycle;Signal;HPM_P1;HPM_P2
2022/09/25 00:02:08;;;;;;;;;;;;;;;21.67;38.00;98959.59;4483454;32;34331;-85
2022/09/25 00:04:36;;;;;;;;;;;;;;;21.71;37.97;98952.44;4482784;32;34082;-87
2022/09/25 00:07:03;;;;;;;;;;;;;;;21.67;38.06;98943.78;4483083;31;35033;-87
2022/09/25 00:09:30;;;;;;;;;;;;;;;21.60;38.23;98939.63;4482858;32;34329;-88
2022/09/25 00:11:57;;;;;;;;;;;;;;;21.53;38.48;98941.63;4467327;32;33704;-86
2022/09/25 00:14:25;;;;;;;;;;;;;;;21.38;38.92;98947.44;4467563;32;34449;-85
2022/09/25 00:16:52;;;;;;;;;;;;;;;21.45;38.90;98938.38;4467505;32;34338;-90
2022/09/25 00:22:06;;;;;;;;;;;;;;;21.47;38.85;98944.44;4467163;32;33250;-84
2022/09/25 00:24:33;;;;;;;;;;;;;;;21.58;38.66;98938.81;4474325;32;34114;-84
2022/09/25 00:27:00;;;;;;;;;;;;;;;21.65;38.46;98927.13;4482726;32;35315;-88
2022/09/25 00:29:29;;;;;;;;;;;;;;;21.67;38.46;98927.94;4470596;32;34399;-88
2022/09/25 00:31:56;;;;;;;;;;;;;;;21.70;38.44;98930.44;4478405;32;33785;-85
2022/09/25 00:34:23;;;;;;;;;;;;;;;21.64;38.69;98933.31;4481535;32;35181;-85
2022/09/25 00:36:51;;;;;;;;;;;;;;;21.71;38.61;98924.28;4468132;32;34382;-87
2022/09/25 00:39:18;;;;;;;;;;;;;;;21.67;38.67;98925.31;4468331;32;34701;-82
2022/09/25 00:41:45;;;;;;;;;;;;;;;21.73;38.61;98924.19;4466199;32;32213;-82
2022/09/25 00:44:31;;;;;;;;;;;;;;;21.81;38.48;98922.12;4474977;32;34353;-90
2022/09/25 00:46:59;;;;;;;;;;;;;;;21.73;38.71;98927.69;4482114;32;33746;-82
2022/09/25 00:49:26;;;;;;;;;;;;;;;21.79;38.54;98919.56;4467322;32;33776;-83
2022/09/25 00:52:01;;;;;;;;;;;;;;;21.77;38.57;98925.81;4467499;32;33190;-83
2022/09/25 00:54:30;;;;;;;;;;;;;;;21.77;38.63;98918.75;4462582;32;34018;-82
2022/09/25 00:56:57;;;;;;;;;;;;;;;21.84;38.44;98920.25;4452982;32;35302;-82
2022/09/25 00:59:28;;;;;;;;;;;;;;;21.87;38.35;98919.28;4452742;32;34965;-86
2022/09/25 01:01:56;;;;;;;;;;;;;;;21.89;38.38;98920.06;4453028;32;33436;-82
2022/09/25 01:04:23;;;;;;;;;;;;;;;21.83;38.48;98923.81;4452888;32;33479;-84
2022/09/25 01:06:51;;;;;;;;;;;;;;;21.88;38.40;98921.00;4454888;32;35392;-86
2022/09/25 01:09:18;;;;;;;;;;;;;;;21.87;38.48;98927.19;4481027;32;33782;-88
2022/09/25 01:11:45;;;;;;;;;;;;;;;21.79;38.64;98916.94;4467445;32;32943;-83
2022/09/25 01:14:16;;;;;;;;;;;;;;;21.88;38.53;98918.34;4482286;32;34235;-83
2022/09/25 01:16:51;;;;;;;;;;;;;;;21.89;38.52;98898.97;4482078;32;35408;-83
2022/09/25 01:19:22;;;;;;;;;;;;;;;21.93;38.36;98904.97;4482341;32;35024;-84
2022/09/25 01:22:02;;;;;;;;;;;;;;;21.81;38.64;98909.81;4462947;32;33718;-88
2022/09/25 01:24:43;;;;;;;;;;;;;;;21.58;39.28;98917.69;4466492;32;35117;-83
2022/09/25 01:27:17;;;;;;;;;;;;;;;21.71;39.01;98912.88;4452624;32;34092;-86
2022/09/25 01:29:51;;;;;;;;;;;;;;;21.70;39.11;98919.88;4474908;32;34535;-82
2022/09/25 01:32:25;;;;;;;;;;;;;;;21.83;38.86;98918.53;4453352;32;33628;-89
2022/09/25 01:34:52;;;;;;;;;;;;;;;21.83;38.81;98913.25;4468200;32;34921;-85
2022/09/25 01:37:22;;;;;;;;;;;;;;;21.91;38.69;98912.13;4477158;32;34011;-83
2022/09/25 01:40:06;;;;;;;;;;;;;;;21.87;38.78;98904.31;4468197;32;35179;-82
2022/09/25 01:42:36;;;;;;;;;;;;;;;21.90;38.77;98916.53;4482084;32;34312;-81
2022/09/25 01:45:04;;;;;;;;;;;;;;;21.79;38.87;98916.06;4462562;32;33940;-86
2022/09/25 01:47:36;;;;;;;;;;;;;;;21.76;39.03;98911.75;4467350;32;34402;-82
2022/09/25 01:50:09;;;;;;;;;;;;;;;21.66;39.28;98915.62;4465591;32;34272;-88
2022/09/25 01:52:37;;;;;;;;;;;;;;;21.73;39.20;98909.22;4451994;32;34016;-83
2022/09/25 01:55:09;;;;;;;;;;;;;;;21.74;39.16;98912.72;4452188;32;34109;-82
2022/09/25 01:57:41;;;;;;;;;;;;;;;21.66;39.29;98910.37;4452261;32;34838;-88
2022/09/25 02:00:09;;;;;;;;;;;;;;;21.60;39.29;98905.34;4464153;31;35270;-83
2022/09/25 02:02:42;;;;;;;;;;;;;;;21.82;38.91;98906.25;4483599;32;33688;-87
2022/09/25 02:05:11;;;;;;;;;;;;;;;21.89;38.65;98892.81;4483640;31;34400;-84
2022/09/25 02:07:40;;;;;;;;;;;;;;;21.87;38.58;98888.47;4460862;32;35124;-88
2022/09/25 02:10:08;;;;;;;;;;;;;;;21.75;38.84;98901.28;4454082;32;34906;-88
2022/09/25 02:12:39;;;;;;;;;;;;;;;21.78;38.74;98898.50;4479140;31;33737;-84
2022/09/25 02:15:08;;;;;;;;;;;;;;;21.69;38.79;98898.84;4457694;32;33402;-83
2022/09/25 02:20:30;;;;;;;;;;;;;;;21.72;38.77;98904.03;4456208;32;34459;-83
2022/09/25 02:23:09;;;;;;;;;;;;;;;21.64;38.90;98904.31;4454927;32;34878;-84
2022/09/25 02:25:40;;;;;;;;;;;;;;;21.58;39.04;98913.28;4454716;32;34582;-85
2022/09/25 02:28:08;;;;;;;;;;;;;;;21.56;39.02;98912.50;4454588;32;34222;-85
2022/09/25 02:30:36;;;;;;;;;;;;;;;21.49;39.15;98918.91;4477897;32;34613;-84
2022/09/25 02:33:03;;;;;;;;;;;;;;;21.48;39.24;98909.28;4484197;32;33693;-88
2022/09/25 02:35:31;;;;;;;;;;;;;;;21.45;39.26;98914.66;4484011;32;34169;-89
2022/09/25 02:37:58;;;;;;;;;;;;;;;21.58;38.92;98901.88;4469902;32;33899;-89
2022/09/25 02:40:32;;;;;;;;;;;;;;;21.50;38.99;98903.94;4483833;32;35245;-84
2022/09/25 02:43:15;;;;;;;;;;;;;;;21.37;39.24;98909.66;4483984;32;34226;-87
2022/09/25 02:45:51;;;;;;;;;;;;;;;21.16;39.63;98909.50;4457096;32;34771;-84
2022/09/25 02:48:25;;;;;;;;;;;;;;;21.35;39.30;98903.56;4468194;32;34231;-89
2022/09/25 02:51:11;;;;;;;;;;;;;;;21.29;39.36;98901.13;4468218;32;33921;-84
2022/09/25 02:53:42;;;;;;;;;;;;;;;21.31;39.38;98896.63;4453994;32;33987;-88
2022/09/25 02:56:09;;;;;;;;;;;;;;;21.29;39.33;98901.13;4454017;32;34218;-85
2022/09/25 02:58:48;;;;;;;;;;;;;;;21.33;39.21;98897.50;4468267;32;34406;-83
2022/09/25 03:01:16;;;;;;;;;;;;;;;21.22;39.55;98888.22;4453774;32;34647;-83
2022/09/25 03:03:43;;;;;;;;;;;;;;;21.11;39.85;98891.22;4453803;32;34473;-85
2022/09/25 03:06:10;;;;;;;;;;;;;;;21.18;39.83;98890.09;4453938;32;34029;-88
2022/09/25 03:08:41;;;;;;;;;;;;;;;21.24;39.73;98892.50;4468001;32;34956;-84
2022/09/25 03:11:09;;;;;;;;;;;;;;;21.21;39.79;98889.09;4453710;32;34663;-83
2022/09/25 03:13:37;;;;;;;;;;;;;;;21.28;39.67;98882.69;4468105;32;33582;-86
2022/09/25 03:16:09;;;;;;;;;;;;;;;21.28;39.79;98883.56;4478097;32;34861;-88
2022/09/25 03:18:37;;;;;;;;;;;;;;;21.20;40.11;98882.97;4468761;32;34450;-86
2022/09/25 03:21:04;;;;;;;;;;;;;;;21.28;40.08;98882.69;4474030;32;35166;-87
2022/09/25 03:23:31;;;;;;;;;;;;;;;21.38;39.90;98882.34;4483636;32;33027;-83
2022/09/25 03:25:58;;;;;;;;;;;;;;;21.35;39.87;98879.81;4474665;32;34349;-83
2022/09/25 03:28:26;;;;;;;;;;;;;;;21.29;40.02;98874.75;4467899;32;34333;-86
2022/09/25 03:30:57;;;;;;;;;;;;;;;21.44;39.83;98883.03;4468153;32;34449;-84
2022/09/25 03:33:24;;;;;;;;;;;;;;;21.59;39.50;98882.47;4467961;32;33946;-85
2022/09/25 03:36:09;;;;;;;;;;;;;;;21.30;40.09;98871.19;4467982;32;33879;-88
2022/09/25 03:38:37;;;;;;;;;;;;;;;21.21;40.42;98882.03;4467805;32;34037;-87
2022/09/25 03:41:07;;;;;;;;;;;;;;;21.23;40.48;98879.38;4467843;32;35220;-84
2022/09/25 03:43:36;;;;;;;;;;;;;;;21.26;40.33;98880.13;4453412;32;33434;-89
2022/09/25 03:46:03;;;;;;;;;;;;;;;21.18;40.45;98876.91;4459721;32;33979;-89
2022/09/25 03:48:31;;;;;;;;;;;;;;;21.27;40.20;98891.53;4483346;31;35936;-85
2022/09/25 03:51:00;;;;;;;;;;;;;;;21.29;40.16;98887.94;4468999;32;33509;-89
2022/09/25 03:53:30;;;;;;;;;;;;;;;21.31;40.15;98899.28;4482914;32;33211;-84
2022/09/25 03:56:03;;;;;;;;;;;;;;;21.09;40.65;98900.94;4469569;32;33582;-85
2022/09/25 03:58:31;;;;;;;;;;;;;;;21.28;40.37;98904.66;4469179;32;34426;-83
2022/09/25 04:01:00;;;;;;;;;;;;;;;21.30;40.34;98904.63;4482832;32;35286;-84
2022/09/25 04:03:28;;;;;;;;;;;;;;;21.25;40.53;98910.06;4467595;32;34557;-84
2022/09/25 04:05:57;;;;;;;;;;;;;;;21.18;40.71;98905.91;4467632;32;33985;-84
2022/09/25 04:08:25;;;;;;;;;;;;;;;21.38;40.37;98894.69;4467509;32;34396;-84
2022/09/25 04:10:55;;;;;;;;;;;;;;;21.47;40.15;98898.75;4453497;32;35237;-84
2022/09/25 04:13:22;;;;;;;;;;;;;;;21.43;40.34;98894.50;4453673;32;33532;-89
2022/09/25 04:15:50;;;;;;;;;;;;;;;21.56;40.09;98898.44;4467889;32;34200;-84
2022/09/25 04:18:18;;;;;;;;;;;;;;;21.55;40.13;98887.00;4467504;32;34980;-83
2022/09/25 04:20:45;;;;;;;;;;;;;;;21.51;40.21;98888.03;4480577;32;33894;-86
2022/09/25 04:23:12;;;;;;;;;;;;;;;21.53;40.27;98882.72;4473464;32;34129;-84
2022/09/25 04:25:39;;;;;;;;;;;;;;;21.57;40.18;98881.69;4482025;32;33777;-86
2022/09/25 04:28:08;;;;;;;;;;;;;;;21.53;40.22;98882.72;4482101;32;34808;-85
2022/09/25 04:30:36;;;;;;;;;;;;;;;21.56;40.20;98883.47;4459585;32;34641;-86
2022/09/25 04:35:49;;;;;;;;;;;;;;;21.51;40.42;98881.91;4482512;32;35004;-84
2022/09/25 04:38:17;;;;;;;;;;;;;;;21.61;40.23;98875.38;4482812;32;34101;-84
2022/09/25 04:40:44;;;;;;;;;;;;;;;21.60;40.23;98877.16;4482726;32;34430;-87
2022/09/25 04:43:12;;;;;;;;;;;;;;;21.59;40.26;98880.72;4482838;32;34008;-84
2022/09/25 04:45:39;;;;;;;;;;;;;;;21.58;40.36;98880.78;4482970;32;34617;-84
2022/09/25 04:48:06;;;;;;;;;;;;;;;21.67;40.12;98884.84;4482874;32;34352;-83
2022/09/25 04:50:34;;;;;;;;;;;;;;;21.60;40.35;98893.00;4483093;32;34571;-87
2022/09/25 04:53:01;;;;;;;;;;;;;;;21.67;40.26;98885.72;4454160;32;34249;-85
2022/09/25 04:55:29;;;;;;;;;;;;;;;21.61;40.44;98894.72;4466961;32;35192;-87
2022/09/25 04:57:56;;;;;;;;;;;;;;;21.69;40.34;98893.56;4467288;32;35050;-88
2022/09/25 05:00:27;;;;;;;;;;;;;;;21.70;40.32;98895.28;4466970;32;35299;-87
2022/09/25 05:02:54;;;;;;;;;;;;;;;21.76;40.22;98895.94;4453236;32;33646;-88
2022/09/25 05:05:21;;;;;;;;;;;;;;;21.86;39.96;98891.19;4442642;32;790984;-84
2022/09/25 05:07:53;;;;;;;;;;;;;;;21.83;39.99;98886.88;4480909;32;34422;-88
2022/09/25 05:10:21;;;;;;;;;;;;;;;21.86;39.93;98885.91;4482451;32;34227;-88
2022/09/25 05:12:53;;;;;;;;;;;;;;;21.87;39.96;98885.84;4482212;32;34487;-87
2022/09/25 05:15:20;;;;;;;;;;;;;;;21.87;40.07;98877.91;4482242;32;34155;-84
2022/09/25 05:17:47;;;;;;;;;;;;;;;21.84;40.19;98882.44;4482419;32;35453;-83
2022/09/25 05:20:16;;;;;;;;;;;;;;;21.79;40.34;98882.63;4482875;32;33506;-85
2022/09/25 05:22:43;;;;;;;;;;;;;;;21.95;40.13;98882.03;4482541;32;33312;-89
2022/09/25 05:25:10;;;;;;;;;;;;;;;21.85;40.37;98885.00;4470449;32;34167;-87
2022/09/25 05:27:38;;;;;;;;;;;;;;;21.93;40.23;98887.38;4466706;32;34922;-85
2022/09/25 05:30:07;;;;;;;;;;;;;;;22.00;40.18;98888.00;4466612;32;34155;-85
2022/09/25 05:32:34;;;;;;;;;;;;;;;21.75;40.75;98896.84;4466492;32;34254;-86
2022/09/25 05:35:03;;;;;;;;;;;;;;;21.88;40.56;98889.31;4469100;32;34399;-85
2022/09/25 05:37:30;;;;;;;;;;;;;;;21.83;40.83;98892.16;4484254;32;35652;-87
2022/09/25 05:39:57;;;;;;;;;;;;;;;21.51;41.40;98895.09;4472555;32;34987;-83
2022/09/25 05:42:24;;;;;;;;;;;;;;;21.56;41.44;98903.72;4481325;31;34377;-83
2022/09/25 05:44:52;;;;;;;;;;;;;;;21.85;40.83;98900.84;4475881;32;34124;-83
2022/09/25 05:47:19;;;;;;;;;;;;;;;22.04;40.39;98905.44;4468530;32;34426;-83
2022/09/25 05:49:46;;;;;;;;;;;;;;;22.05;40.29;98904.53;4474730;32;34416;-82
2022/09/25 05:52:13;;;;;;;;;;;;;;;22.03;40.46;98911.66;4469075;32;33549;-87
2022/09/25 05:54:40;;;;;;;;;;;;;;;22.14;40.29;98906.00;4484206;32;35170;-89
2022/09/25 05:57:08;;;;;;;;;;;;;;;22.18;40.16;98902.31;4477360;32;35509;-88
2022/09/25 05:59:35;;;;;;;;;;;;;;;22.11;40.31;98906.94;4477348;32;34335;-87
2022/09/25 06:02:02;;;;;;;;;;;;;;;22.19;40.30;98904.88;4481039;32;33485;-88
2022/09/25 06:04:30;;;;;;;;;;;;;;;22.29;40.26;98900.12;4480970;32;34058;-87
2022/09/25 06:07:00;;;;;;;;;;;;;;;22.33;40.34;98907.84;4474289;32;34178;-87
2022/09/25 06:09:27;;;;;;;;;;;;;;;22.41;40.19;98910.19;4483630;32;35977;-87
2022/09/25 06:11:56;;;;;;;;;;;;;;;22.07;40.89;98921.16;4471018;31;33961;-85
2022/09/25 06:14:23;;;;;;;;;;;;;;;22.36;40.44;98927.16;4477903;32;33858;-83
2022/09/25 06:16:50;;;;;;;;;;;;;;;22.46;40.26;98928.50;4470600;32;35143;-89
2022/09/25 06:19:17;;;;;;;;;;;;;;;22.34;40.40;98928.06;4474269;31;35315;-83
2022/09/25 06:21:46;;;;;;;;;;;;;;;22.53;40.17;98924.69;4484326;32;33448;-83
2022/09/25 06:24:13;;;;;;;;;;;;;;;22.39;40.31;98927.00;4482983;32;35002;-84
2022/09/25 06:26:41;;;;;;;;;;;;;;;22.44;40.06;98930.34;4472598;32;34124;-84
2022/09/25 06:29:08;;;;;;;;;;;;;;;22.28;40.47;98924.81;4474237;31;35206;-83
2022/09/25 06:31:36;;;;;;;;;;;;;;;22.23;40.70;98921.47;4477360;32;34163;-85
2022/09/25 06:34:04;;;;;;;;;;;;;;;22.16;40.70;98923.50;4468835;32;34368;-83
2022/09/25 06:36:32;;;;;;;;;;;;;;;22.36;40.53;98927.16;4468351;32;35340;-88
2022/09/25 06:38:59;;;;;;;;;;;;;;;22.52;40.26;98933.53;4478913;32;35203;-90
2022/09/25 06:41:26;;;;;;;;;;;;;;;22.59;40.32;98925.31;4483228;32;33569;-84
2022/09/25 06:43:54;;;;;;;;;;;;;;;21.91;42.31;98946.44;4483978;32;33906;-86
2022/09/25 06:46:21;;;;;;;;;;;;;;;22.35;41.38;98936.88;4478961;32;34177;-86
2022/09/25 06:48:53;;;;;;;;;;;;;;;22.47;41.26;98933.75;4476578;32;35026;-87
2022/09/25 06:51:23;;;;;;;;;;;;;;;22.08;42.24;98946.66;4468155;32;34344;-90
2022/09/25 06:53:52;;;;;;;;;;;;;;;21.93;42.88;98950.72;4467884;32;35035;-85
2022/09/25 06:56:19;;;;;;;;;;;;;;;22.36;41.81;98940.38;4470922;31;33908;-87
2022/09/25 06:58:46;;;;;;;;;;;;;;;22.41;41.44;98935.75;4466298;32;35068;-82
2022/09/25 07:01:14;;;;;;;;;;;;;;;21.65;42.67;98940.31;4474145;32;34530;-85
2022/09/25 07:03:44;;;;;;;;;;;;;;;21.87;42.16;98941.25;4467842;32;33958;-84
2022/09/25 07:06:15;;;;;;;;;;;;;;;22.42;41.34;98940.09;4454378;32;34358;-82
2022/09/25 07:08:43;;;;;;;;;;;;;;;22.07;40.38;98931.72;4483116;32;34351;-83
2022/09/25 07:11:11;;;;;;;;;;;;;;;22.37;39.70;98931.50;4483592;32;33286;-86
2022/09/25 07:13:40;;;;;;;;;;;;;;;22.33;40.19;98931.63;4483370;32;34897;-81
2022/09/25 07:16:13;;;;;;;;;;;;;;;22.84;39.10;98929.59;4483075;32;34778;-83
2022/09/25 07:18:40;;;;;;;;;;;;;;;22.47;39.50;98922.31;4482116;31;34456;-83
2022/09/25 07:21:12;;;;;;;;;;;;;;;22.10;40.85;98927.19;4483005;32;33511;-82
2022/09/25 07:23:40;;;;;;;;;;;;;;;22.49;40.70;98923.09;4483424;32;34321;-87
2022/09/25 07:26:09;;;;;;;;;;;;;;;22.79;39.96;98927.16;4483614;32;34327;-84
2022/09/25 07:28:38;;;;;;;;;;;;;;;22.74;39.24;98931.78;4459096;32;34328;-82
2022/09/25 07:31:18;;;;;;;;;;;;;;;22.37;39.79;98932.38;4470442;32;34293;-88
2022/09/25 07:33:46;;;;;;;;;;;;;;;22.90;38.75;98925.84;4479646;32;34225;-89
2022/09/25 07:36:14;;;;;;;;;;;;;;;23.00;38.57;98920.16;4476219;32;32704;-82
2022/09/25 07:38:41;;;;;;;;;;;;;;;23.03;38.57;98919.16;4453865;32;35087;-83
2022/09/25 07:41:09;;;;;;;;;;;;;;;22.95;38.84;98923.91;4468260;32;33584;-90
2022/09/25 07:43:37;;;;;;;;;;;;;;;22.41;39.52;98925.19;4467499;32;34717;-85
2022/09/25 07:46:05;;;;;;;;;;;;;;;21.89;40.70;98925.34;4467732;32;33479;-86
2022/09/25 07:48:32;;;;;;;;;;;;;;;22.06;39.78;98915.03;4482200;32;35352;-87
2022/09/25 07:51:00;;;;;;;;;;;;;;;22.32;39.49;98906.13;4481286;32;33554;-83
2022/09/25 07:53:27;;;;;;;;;;;;;;;22.12;39.75;98903.37;4482527;32;34788;-87
2022/09/25 07:56:00;;;;;;;;;;;;;;;22.20;40.26;98906.62;4460125;32;33582;-85
2022/09/25 07:58:38;;;;;;;;;;;;;;;22.04;40.10;98894.88;4470280;32;34092;-89
2022/09/25 08:01:07;;;;;;;;;;;;;;;21.81;40.08;98904.53;4483407;32;33815;-91
2022/09/25 08:03:34;;;;;;;;;;;;;;;21.87;40.44;98898.16;4473008;32;35018;-85
2022/09/25 08:06:03;;;;;;;;;;;;;;;21.62;41.17;98908.75;4472803;32;35316;-84
2022/09/25 08:08:30;;;;;;;;;;;;;;;22.20;40.22;98895.19;4471795;32;34044;-85
2022/09/25 08:11:01;;;;;;;;;;;;;;;21.47;41.46;98896.13;4453343;32;33547;-84
2022/09/25 08:13:31;;;;;;;;;;;;;;;22.25;39.91;98893.25;4474414;32;34069;-84
2022/09/25 08:16:02;;;;;;;;;;;;;;;22.22;40.08;98899.50;4472792;32;35420;-88
2022/09/25 08:18:30;;;;;;;;;;;;;;;22.34;39.83;98896.34;4471357;32;34480;-84
2022/09/25 08:21:03;;;;;;;;;;;;;;;21.83;40.61;98897.44;4464142;32;33862;-83
2022/09/25 08:23:31;;;;;;;;;;;;;;;22.26;39.98;98898.44;4468064;32;34670;-85
2022/09/25 08:25:58;;;;;;;;;;;;;;;21.89;40.80;98906.03;4475406;32;34131;-87
2022/09/25 08:28:25;;;;;;;;;;;;;;;22.17;40.22;98909.38;4477828;32;34110;-82
2022/09/25 08:30:53;;;;;;;;;;;;;;;21.91;40.30;98920.03;4482850;32;33917;-82
2022/09/25 08:33:20;;;;;;;;;;;;;;;22.23;39.92;98917.03;4482813;32;33864;-88
2022/09/25 08:35:56;;;;;;;;;;;;;;;22.25;39.22;98917.00;4482501;32;35166;-82
2022/09/25 08:38:25;;;;;;;;;;;;;;;22.43;39.44;98913.66;4479111;32;34337;-86
2022/09/25 08:40:53;;;;;;;;;;;;;;;22.65;38.87;98908.34;4475095;32;33602;-83
2022/09/25 08:43:21;;;;;;;;;;;;;;;22.22;39.08;98920.63;4479531;32;34226;-91
2022/09/25 08:51:22;;;;;;;;;;;;;;;22.47;39.54;98901.19;4472273;32;33453;-84
2022/09/25 08:53:49;;;;;;;;;;;;;;;22.62;39.06;98903.22;4466047;32;34992;-92
2022/09/25 08:56:17;;;;;;;;;;;;;;;22.82;38.72;98900.59;4471255;32;35307;-88
2022/09/25 08:58:51;;;;;;;;;;;;;;;22.67;39.03;98910.94;4466973;32;34267;-88
2022/09/25 09:01:20;;;;;;;;;;;;;;;22.85;38.69;98907.53;4453087;32;33767;-89
2022/09/25 09:03:52;;;;;;;;;;;;;;;22.88;38.74;98909.19;4452889;32;33644;-82
2022/09/25 09:06:20;;;;;;;;;;;;;;;22.98;38.09;98915.84;4452915;32;35333;-83
2022/09/25 09:08:59;;;;;;;;;;;;;;;22.33;39.05;98922.84;4453428;32;33969;-83
2022/09/25 09:11:29;;;;;;;;;;;;;;;22.80;38.54;98914.78;4454851;32;33155;-90
2022/09/25 09:14:09;;;;;;;;;;;;;;;22.92;38.44;98919.63;4454689;32;33990;-88
2022/09/25 09:16:41;;;;;;;;;;;;;;;22.83;38.83;98923.44;4454331;32;34507;-90
2022/09/25 09:19:08;;;;;;;;;;;;;;;23.19;37.86;98919.37;4455990;32;34358;-86
2022/09/25 09:21:36;;;;;;;;;;;;;;;22.93;38.74;98908.12;4463049;32;33488;-82
2022/09/25 09:24:03;;;;;;;;;;;;;;;22.47;39.43;98914.38;4481492;32;35033;-83
2022/09/25 09:26:36;;;;;;;;;;;;;;;22.39;39.14;98924.38;4483139;32;34574;-90
2022/09/25 09:29:04;;;;;;;;;;;;;;;21.87;40.10;98924.56;4477279;32;34912;-85
2022/09/25 09:31:34;;;;;;;;;;;;;;;22.45;39.27;98926.78;4483880;32;34506;-83
2022/09/25 09:34:13;;;;;;;;;;;;;;;22.59;37.89;98921.81;4483830;32;34279;-83
2022/09/25 09:36:53;;;;;;;;;;;;;;;22.26;39.00;98919.56;4484051;31;34426;-91
2022/09/25 09:39:20;;;;;;;;;;;;;;;22.61;38.32;98919.97;4484045;32;34560;-86
2022/09/25 09:41:53;;;;;;;;;;;;;;;22.91;38.16;98919.63;4484028;32;33256;-84
2022/09/25 09:44:29;;;;;;;;;;;;;;;23.05;38.58;98917.31;4484045;32;34112;-82
2022/09/25 09:47:04;;;;;;;;;;;;;;;22.72;38.99;98916.88;4466973;32;34111;-82
2022/09/25 09:49:42;;;;;;;;;;;;;;;22.49;39.77;98916.03;4480392;32;34461;-89
2022/09/25 09:52:11;;;;;;;;;;;;;;;22.59;40.78;98913.91;4471192;32;33054;-82
2022/09/25 09:54:46;;;;;;;;;;;;;;;22.93;39.94;98917.84;4465583;31;34729;-83
2022/09/25 09:57:17;;;;;;;;;;;;;;;22.82;39.95;98916.44;4459645;31;34243;-82
2022/09/25 09:59:46;;;;;;;;;;;;;;;22.28;41.66;98901.06;4462870;32;35154;-83
2022/09/25 10:02:24;;;;;;;;;;;;;;;22.68;40.77;98905.59;4462928;32;33966;-83
2022/09/25 10:04:51;;;;;;;;;;;;;;;22.64;41.12;98906.62;4456275;32;34781;-89
2022/09/25 10:07:21;;;;;;;;;;;;;;;22.93;41.51;98916.06;4471649;32;34474;-84
2022/09/25 10:09:48;;;;;;;;;;;;;;;22.86;41.58;98908.41;4461196;32;33789;-85
2022/09/25 10:12:27;;;;;;;;;;;;;;;22.32;42.55;98910.56;4459090;32;33764;-85
2022/09/25 10:14:55;;;;;;;;;;;;;;;21.98;43.70;98916.25;4474016;32;34167;-86
2022/09/25 10:17:23;;;;;;;;;;;;;;;21.90;43.67;98916.53;4459940;32;33682;-87
2022/09/25 10:19:54;;;;;;;;;;;;;;;22.03;43.69;98924.84;4480157;32;33949;-88
2022/09/25 10:22:25;;;;;;;;;;;;;;;22.28;43.30;98920.38;4470177;31;33588;-86
2022/09/25 10:24:54;;;;;;;;;;;;;;;22.00;44.65;98930.22;4463918;32;35329;-89
2022/09/25 10:27:25;;;;;;;;;;;;;;;22.49;42.90;98923.94;4477626;32;35099;-88
2022/09/25 10:30:03;;;;;;;;;;;;;;;22.54;42.73;98927.28;4485329;31;34539;-88
2022/09/25 10:32:34;;;;;;;;;;;;;;;22.42;43.17;98924.25;4472091;32;33582;-84
2022/09/25 10:35:02;;;;;;;;;;;;;;;22.28;43.72;98925.66;4466904;32;34716;-87
2022/09/25 10:37:33;;;;;;;;;;;;;;;22.46;43.09;98917.94;4469474;32;33585;-84
2022/09/25 10:40:01;;;;;;;;;;;;;;;22.72;42.72;98907.16;4483619;32;34903;-83
2022/09/25 10:42:47;;;;;;;;;;;;;;;22.20;43.46;98911.91;4469561;32;34273;-84
2022/09/25 10:45:34;;;;;;;;;;;;;;;22.33;43.17;98907.84;4467618;32;34006;-85
2022/09/25 10:51:04;;;;;;;;;;;;;;;22.99;41.90;98896.41;4467336;32;34397;-84
2022/09/25 10:53:33;;;;;;;;;;;;;;;22.59;42.91;98892.75;4482662;31;34263;-82
2022/09/25 10:56:04;;;;;;;;;;;;;;;22.74;42.69;98901.84;4473868;32;34889;-83
2022/09/25 10:58:34;;;;;;;;;;;;;;;22.26;43.42;98895.81;4479074;32;33893;-85
2022/09/25 11:01:02;;;;;;;;;;;;;;;22.61;42.52;98890.91;4483172;32;34297;-88
2022/09/25 11:03:31;;;;;;;;;;;;;;;22.84;41.79;98892.59;4456534;32;34314;-84
2022/09/25 11:06:00;;;;;;;;;;;;;;;22.77;42.02;98884.09;4465967;32;34914;-85
2022/09/25 11:08:29;;;;;;;;;;;;;;;22.29;43.22;98874.56;4483208;32;34544;-84
2022/09/25 11:10:57;;;;;;;;;;;;;;;22.54;43.05;98873.56;4464894;32;35204;-86
2022/09/25 11:13:27;;;;;;;;;;;;;;;22.69;42.47;98882.66;4455736;32;32821;-87
2022/09/25 11:15:56;;;;;;;;;;;;;;;22.71;41.78;98881.69;4480509;32;33741;-84
2022/09/25 11:18:50;;;;;;;;;;;;;;;22.48;42.28;98882.63;4468088;32;34836;-87
2022/09/25 11:21:19;;;;;;;;;;;;;;;22.81;40.92;98882.16;4480298;32;34319;-83
2022/09/25 11:23:46;;;;;;;;;;;;;;;22.26;42.63;98879.97;4464175;32;33366;-85
2022/09/25 11:26:15;;;;;;;;;;;;;;;22.51;42.10;98873.72;4453638;32;33603;-85
2022/09/25 11:28:43;;;;;;;;;;;;;;;22.50;42.22;98872.87;4453038;32;35008;-86
2022/09/25 11:31:29;;;;;;;;;;;;;;;22.87;41.27;98881.03;4468780;32;33947;-85
2022/09/25 11:33:56;;;;;;;;;;;;;;;21.90;43.51;98897.22;4470322;32;33348;-85
2022/09/25 11:36:23;;;;;;;;;;;;;;;22.09;43.72;98890.31;4482525;32;34185;-85
2022/09/25 11:41:44;;;;;;;;;;;;;;;22.36;44.16;98879.63;4479298;32;33967;-82
2022/09/25 11:44:21;;;;;;;;;;;;;;;22.39;43.41;98880.34;4467220;32;34569;-84
2022/09/25 11:46:51;;;;;;;;;;;;;;;22.62;43.68;98882.06;4483135;32;33951;-86
2022/09/25 11:49:23;;;;;;;;;;;;;;;22.51;43.48;98881.66;4473645;32;34518;-83
2022/09/25 11:51:50;;;;;;;;;;;;;;;22.72;43.67;98885.19;4453932;32;34470;-86
2022/09/25 11:54:24;;;;;;;;;;;;;;;22.92;43.13;98879.09;4476819;32;33149;-86
2022/09/25 11:57:06;;;;;;;;;;;;;;;22.53;44.68;98883.28;4455523;32;34969;-87
2022/09/25 11:59:54;;;;;;;;;;;;;;;22.43;44.84;98870.53;4465613;32;33876;-87
2022/09/25 12:02:29;;;;;;;;;;;;;;;22.53;44.47;98870.06;4468736;32;34431;-86
2022/09/25 12:05:06;;;;;;;;;;;;;;;23.08;43.80;98877.53;4469302;32;32913;-86
2022/09/25 12:07:34;;;;;;;;;;;;;;;22.00;46.47;98875.66;4482761;32;34313;-89
2022/09/25 12:10:06;;;;;;;;;;;;;;;22.29;46.14;98874.56;4482623;32;35257;-87
2022/09/25 12:12:56;;;;;;;;;;;;;;;22.73;45.27;98873.69;4483006;32;34234;-84
2022/09/25 12:15:42;;;;;;;;;;;;;;;23.01;44.72;98865.50;4479645;32;33638;-85
2022/09/25 12:18:16;;;;;;;;;;;;;;;23.43;43.97;98869.84;4475952;32;33887;-85
2022/09/25 12:21:02;;;;;;;;;;;;;;;22.15;47.35;98868.97;4464234;32;34321;-82
2022/09/25 12:23:33;;;;;;;;;;;;;;;22.80;45.92;98870.72;4453104;32;34065;-84
2022/09/25 12:26:16;;;;;;;;;;;;;;;22.74;46.05;98876.28;4453106;32;34340;-90
2022/09/25 12:29:03;;;;;;;;;;;;;;;22.64;46.54;98879.34;4469054;32;34327;-85
2022/09/25 12:31:34;;;;;;;;;;;;;;;22.70;46.26;98877.31;4478220;32;35166;-88
2022/09/25 12:34:22;;;;;;;;;;;;;;;22.31;47.11;98864.81;4479306;32;33434;-88
2022/09/25 12:36:51;;;;;;;;;;;;;;;22.68;46.32;98865.94;4443109;32;33103;-84
2022/09/25 12:39:23;;;;;;;;;;;;;;;22.48;47.04;98863.28;4462236;32;33906;-85
2022/09/25 12:41:55;;;;;;;;;;;;;;;22.50;47.07;98862.28;4473011;32;35348;-86
2022/09/25 12:44:22;;;;;;;;;;;;;;;22.79;46.32;98863.72;4467955;32;35221;-84
2022/09/25 12:47:01;;;;;;;;;;;;;;;22.92;46.28;98853.53;4482896;32;34124;-86
2022/09/25 12:49:33;;;;;;;;;;;;;;;22.73;46.74;98861.34;4482905;31;34114;-84
2022/09/25 12:52:02;;;;;;;;;;;;;;;22.75;46.57;98862.12;4481492;32;34257;-87
2022/09/25 12:54:47;;;;;;;;;;;;;;;23.20;45.41;98853.19;4452862;32;34474;-85
2022/09/25 12:57:22;;;;;;;;;;;;;;;23.15;45.57;98854.34;4452902;32;33596;-85
2022/09/25 12:59:56;;;;;;;;;;;;;;;21.98;48.59;98851.13;4453116;32;34286;-90
2022/09/25 13:02:26;;;;;;;;;;;;;;;23.09;46.12;98849.31;4466574;32;35131;-86
2022/09/25 13:05:01;;;;;;;;;;;;;;;23.23;45.77;98847.78;4465777;32;35072;-85
2022/09/25 13:07:35;;;;;;;;;;;;;;;22.98;46.59;98847.12;4465590;32;34031;-85
2022/09/25 13:10:05;;;;;;;;;;;;;;;23.23;45.93;98845.13;4464461;32;34293;-93
2022/09/25 13:12:34;;;;;;;;;;;;;;;23.29;45.73;98846.62;4467287;32;34106;-88
2022/09/25 13:15:07;;;;;;;;;;;;;;;23.32;45.65;98846.50;4464053;32;34689;-90
2022/09/25 13:17:35;;;;;;;;;;;;;;;23.35;45.55;98842.87;4466955;32;33464;-83
2022/09/25 13:20:21;;;;;;;;;;;;;;;23.37;45.54;98846.28;4467760;32;34240;-91
2022/09/25 13:22:49;;;;;;;;;;;;;;;23.50;45.48;98856.28;4481805;32;34827;-86
2022/09/25 13:25:17;;;;;;;;;;;;;;;23.71;44.91;98849.16;4465251;32;34596;-83